createdAt,value
2023-05-24T00:01:12.081Z,100187.33
2023-05-24T00:03:42.555Z,100190.75
2023-05-24T00:06:13.424Z,100195.32
2023-05-24T00:08:43.945Z,100195.91
2023-05-24T00:11:14.381Z,100196.30
2023-05-24T00:13:44.887Z,100201.02
2023-05-24T00:16:15.450Z,100202.05
2023-05-24T00:18:48.267Z,100212.20
2023-05-24T00:21:18.726Z,100207.31
2023-05-24T00:23:51.838Z,100209.76
2023-05-24T00:26:22.912Z,100206.62
2023-05-24T00:28:56.691Z,100216.52
2023-05-24T00:31:27.063Z,100216.48
2023-05-24T00:33:57.532Z,100216.63
2023-05-24T00:36:27.940Z,100219.40
2023-05-24T00:38:58.362Z,100217.52
2023-05-24T00:41:28.774Z,100209.23
2023-05-24T00:43:59.291Z,100218.48
2023-05-24T00:46:31.758Z,100214.09
2023-05-24T00:49:02.910Z,100215.59
2023-05-24T00:51:34.036Z,100220.73
2023-05-24T00:54:05.004Z,100221.56
2023-05-24T00:56:35.836Z,100227.30
2023-05-24T00:59:06.811Z,100233.41
2023-05-24T01:01:37.458Z,100237.79
2023-05-24T01:04:08.177Z,100242.08
2023-05-24T01:06:53.780Z,100245.92
2023-05-24T01:09:31.682Z,100248.23
2023-05-24T01:12:18.985Z,100248.61
2023-05-24T01:14:59.492Z,100257.05
2023-05-24T01:17:37.511Z,100259.80
2023-05-24T01:20:11.242Z,100265.45
2023-05-24T01:23:09.056Z,100263.02
2023-05-24T01:26:01.878Z,100271.66
2023-05-24T01:28:33.015Z,100268.41
2023-05-24T01:31:05.121Z,100271.17
2023-05-24T01:33:36.075Z,100274.77
2023-05-24T01:36:07.184Z,100276.63
2023-05-24T01:38:37.794Z,100276.04
2023-05-24T01:41:23.598Z,100276.92
2023-05-24T01:44:01.862Z,100284.46
2023-05-24T01:46:38.933Z,100284.87
2023-05-24T01:49:23.459Z,100283.64
2023-05-24T01:51:59.947Z,100291.65
2023-05-24T01:54:34.747Z,100297.55
2023-05-24T01:57:08.840Z,100301.56
2023-05-24T01:59:43.301Z,100303.11
2023-05-24T02:02:14.052Z,100309.79
2023-05-24T02:04:44.615Z,100310.28
2023-05-24T02:07:15.181Z,100314.31
2023-05-24T02:09:45.638Z,100320.31
2023-05-24T02:12:17.002Z,100324.75
2023-05-24T02:14:51.110Z,100327.46
2023-05-24T02:17:22.671Z,100328.23
2023-05-24T02:19:53.171Z,100333.58
2023-05-24T02:22:23.631Z,100336.30
2023-05-24T02:24:56.056Z,100339.61
2023-05-24T02:27:26.586Z,100340.34
2023-05-24T02:29:57.520Z,100342.82
2023-05-24T02:32:28.046Z,100347.47
2023-05-24T02:34:59.403Z,100344.34
2023-05-24T02:37:29.920Z,100350.85
2023-05-24T02:40:00.371Z,100350.88
2023-05-24T02:42:30.888Z,100350.02
2023-05-24T02:45:01.335Z,100356.23
2023-05-24T02:47:31.764Z,100353.73
2023-05-24T02:50:02.363Z,100360.23
2023-05-24T02:52:33.145Z,100360.59
2023-05-24T02:55:03.602Z,100360.24
2023-05-24T02:57:35.118Z,100358.16
2023-05-24T03:00:08.399Z,100358.52
2023-05-24T03:02:41.160Z,100366.39
2023-05-24T03:05:12.222Z,100362.21
2023-05-24T03:07:42.736Z,100366.42
2023-05-24T03:10:15.773Z,100368.52
2023-05-24T03:12:46.990Z,100371.29
2023-05-24T03:15:18.090Z,100376.06
2023-05-24T03:17:49.603Z,100379.20
2023-05-24T03:20:21.642Z,100378.33
2023-05-24T03:22:52.172Z,100384.56
2023-05-24T03:25:22.769Z,100388.98
2023-05-24T03:27:53.167Z,100388.14
2023-05-24T03:30:24.998Z,100389.50
2023-05-24T03:32:57.884Z,100389.50
2023-05-24T03:35:28.762Z,100387.41
2023-05-24T03:37:59.718Z,100381.48
2023-05-24T03:40:33.846Z,100380.98
2023-05-24T03:43:17.173Z,100383.98
2023-05-24T03:46:09.514Z,100387.31
2023-05-24T03:48:40.023Z,100390.83
2023-05-24T03:51:10.666Z,100392.58
2023-05-24T03:53:41.154Z,100395.87
2023-05-24T03:56:11.506Z,100394.12
2023-05-24T03:58:41.980Z,100392.05
2023-05-24T04:01:25.426Z,100398.53
2023-05-24T04:04:03.685Z,100396.77
2023-05-24T04:06:36.752Z,100396.10
2023-05-24T04:09:07.925Z,100398.56
2023-05-24T04:11:38.366Z,100399.09
2023-05-24T04:14:08.776Z,100400.84
2023-05-24T04:16:39.767Z,100404.15
2023-05-24T04:19:10.758Z,100405.55
2023-05-24T04:21:42.213Z,100410.98
2023-05-24T04:24:13.098Z,100411.52
2023-05-24T04:26:43.522Z,100413.45
2023-05-24T04:29:14.286Z,100412.91
2023-05-24T04:31:44.942Z,100410.96
2023-05-24T04:34:16.063Z,100412.81
2023-05-24T04:36:47.688Z,100414.20
2023-05-24T04:39:18.958Z,100414.52
2023-05-24T04:41:51.150Z,100417.28
2023-05-24T04:44:21.855Z,100419.34
2023-05-24T04:46:54.817Z,100422.26
2023-05-24T04:49:25.351Z,100423.11
2023-05-24T04:51:55.905Z,100429.93
2023-05-24T04:54:26.373Z,100433.42
2023-05-24T04:56:56.947Z,100431.64
2023-05-24T04:59:27.871Z,100431.27
2023-05-24T05:01:58.656Z,100435.64
2023-05-24T05:04:29.295Z,100432.17
2023-05-24T05:06:59.839Z,100430.89
2023-05-24T05:09:30.232Z,100437.41
2023-05-24T05:12:00.880Z,100434.69
2023-05-24T05:14:31.790Z,100436.59
2023-05-24T05:17:02.159Z,100443.75
2023-05-24T05:19:32.610Z,100438.98
2023-05-24T05:22:03.401Z,100439.67
2023-05-24T05:24:33.979Z,100439.89
2023-05-24T05:27:04.427Z,100443.65
2023-05-24T05:29:34.886Z,100456.34
2023-05-24T05:32:05.681Z,100456.36
2023-05-24T05:34:36.244Z,100465.11
2023-05-24T05:37:06.922Z,100467.69
2023-05-24T05:39:37.353Z,100472.55
2023-05-24T05:42:09.964Z,100474.80
2023-05-24T05:44:40.370Z,100481.70
2023-05-24T05:47:10.809Z,100484.63
2023-05-24T05:49:41.288Z,100484.99
2023-05-24T05:52:11.842Z,100490.45
2023-05-24T05:54:42.267Z,100486.86
2023-05-24T05:57:13.047Z,100484.19
2023-05-24T05:59:43.568Z,100482.82
2023-05-24T06:02:14.080Z,100486.63
2023-05-24T06:04:44.510Z,100488.92
2023-05-24T06:07:14.960Z,100492.09
2023-05-24T06:09:45.529Z,100494.55
2023-05-24T06:12:16.253Z,100496.61
2023-05-24T06:14:48.426Z,100490.82
2023-05-24T06:17:19.488Z,100493.63
2023-05-24T06:19:49.906Z,100499.61
2023-05-24T06:22:21.597Z,100506.54
2023-05-24T06:24:52.500Z,100506.25
2023-05-24T06:27:22.829Z,100510.95
2023-05-24T06:29:53.693Z,100509.41
2023-05-24T06:32:24.276Z,100507.65
2023-05-24T06:34:54.713Z,100511.98
2023-05-24T06:37:25.632Z,100512.41
2023-05-24T06:39:55.995Z,100515.60
2023-05-24T06:42:26.370Z,100511.39
2023-05-24T06:44:56.816Z,100518.02
2023-05-24T06:47:27.415Z,100527.31
2023-05-24T06:49:58.287Z,100525.98
2023-05-24T06:52:29.007Z,100532.32
2023-05-24T06:54:59.412Z,100532.59
2023-05-24T06:57:30.158Z,100537.13
2023-05-24T07:00:00.658Z,100544.59
2023-05-24T07:02:31.401Z,100550.64
2023-05-24T07:05:02.324Z,100553.65
2023-05-24T07:07:33.745Z,100559.41
2023-05-24T07:10:04.242Z,100566.03
2023-05-24T07:12:34.708Z,100572.50
2023-05-24T07:15:05.659Z,100573.52
2023-05-24T07:17:36.071Z,100579.88
2023-05-24T07:20:10.371Z,100578.77
2023-05-24T07:22:40.899Z,100579.58
2023-05-24T07:25:12.468Z,100579.95
2023-05-24T07:27:42.854Z,100584.89
2023-05-24T07:30:27.920Z,100586.10
2023-05-24T07:33:03.185Z,100582.70
2023-05-24T07:35:33.728Z,100588.61
2023-05-24T07:38:04.003Z,100594.83
2023-05-24T07:40:35.000Z,100600.70
2023-05-24T07:43:08.374Z,100605.80
2023-05-24T07:45:38.737Z,100610.83
2023-05-24T07:48:09.267Z,100615.73
2023-05-24T07:50:39.743Z,100615.11
2023-05-24T07:53:10.148Z,100621.25
2023-05-24T07:55:41.137Z,100626.23
2023-05-24T07:58:11.743Z,100627.81
2023-05-24T08:00:42.854Z,100627.23
2023-05-24T08:03:14.832Z,100627.83
2023-05-24T08:05:45.697Z,100629.28
2023-05-24T08:08:16.392Z,100627.88
2023-05-24T08:10:46.858Z,100627.52
2023-05-24T08:13:17.320Z,100633.77
2023-05-24T08:15:48.108Z,100632.12
2023-05-24T08:18:18.440Z,100633.48
2023-05-24T08:20:48.876Z,100630.90
2023-05-24T08:23:19.658Z,100628.05
2023-05-24T08:25:51.490Z,100621.34
2023-05-24T08:28:22.189Z,100615.59
2023-05-24T08:30:52.727Z,100617.57
2023-05-24T08:33:23.307Z,100611.16
2023-05-24T08:35:53.750Z,100610.98
2023-05-24T08:38:24.118Z,100610.35
2023-05-24T08:40:54.508Z,100612.19
2023-05-24T08:43:26.078Z,100617.95
2023-05-24T08:45:59.280Z,100615.49
2023-05-24T08:48:31.293Z,100621.05
2023-05-24T08:51:02.040Z,100609.48
2023-05-24T08:53:33.505Z,100615.95
2023-05-24T08:56:04.625Z,100618.83
2023-05-24T08:58:35.194Z,100618.11
2023-05-24T09:01:07.527Z,100615.42
2023-05-24T09:03:39.503Z,100619.33
2023-05-24T09:06:12.016Z,100613.41
2023-05-24T09:08:44.131Z,100618.98
2023-05-24T09:11:16.292Z,100625.79
2023-05-24T09:13:47.051Z,100630.96
2023-05-24T09:16:18.240Z,100625.53
2023-05-24T09:18:48.690Z,100630.75
2023-05-24T09:21:19.514Z,100632.50
2023-05-24T09:23:50.602Z,100631.96
2023-05-24T09:26:21.869Z,100637.23
2023-05-24T09:28:56.028Z,100629.80
2023-05-24T09:31:35.318Z,100635.73
2023-05-24T09:34:10.887Z,100631.91
2023-05-24T09:36:47.179Z,100630.52
2023-05-24T09:39:20.725Z,100630.11
2023-05-24T09:41:57.489Z,100630.88
2023-05-24T09:44:28.982Z,100630.98
2023-05-24T09:47:05.998Z,100629.67
2023-05-24T09:49:39.541Z,100633.65
2023-05-24T09:52:10.059Z,100632.73
2023-05-24T09:54:41.924Z,100630.70
2023-05-24T09:57:12.332Z,100633.60
2023-05-24T09:59:44.409Z,100638.23
2023-05-24T10:02:14.896Z,100635.86
2023-05-24T10:04:46.945Z,100639.80
2023-05-24T10:07:18.786Z,100644.02
2023-05-24T10:09:50.000Z,100643.33
2023-05-24T10:12:23.146Z,100647.86
2023-05-24T10:14:57.640Z,100649.46
2023-05-24T10:17:28.904Z,100651.80
2023-05-24T10:19:59.350Z,100652.84
2023-05-24T10:22:32.651Z,100658.45
2023-05-24T10:25:06.606Z,100660.73
2023-05-24T10:27:38.492Z,100663.54
2023-05-24T10:30:16.560Z,100660.54
2023-05-24T10:32:48.879Z,100662.53
2023-05-24T10:35:21.257Z,100658.63
2023-05-24T10:37:52.374Z,100658.55
2023-05-24T10:40:26.100Z,100656.35
2023-05-24T10:42:56.934Z,100653.11
2023-05-24T10:45:40.586Z,100648.42
2023-05-24T10:48:36.366Z,100656.41
2023-05-24T10:51:34.761Z,100656.98
2023-05-24T10:54:22.489Z,100656.90
2023-05-24T10:56:53.743Z,100660.20
2023-05-24T10:59:35.114Z,100662.70
2023-05-24T11:02:09.723Z,100665.58
2023-05-24T11:04:43.351Z,100663.46
2023-05-24T11:07:15.436Z,100663.09
2023-05-24T11:09:52.724Z,100663.58
2023-05-24T11:12:23.813Z,100659.11
2023-05-24T11:14:55.118Z,100661.84
2023-05-24T11:17:26.394Z,100668.11
2023-05-24T11:19:57.764Z,100672.67
2023-05-24T11:22:28.432Z,100675.10
2023-05-24T11:25:03.957Z,100676.97
2023-05-24T11:27:35.457Z,100676.19
2023-05-24T11:30:08.117Z,100679.36
2023-05-24T11:32:42.624Z,100676.80
2023-05-24T11:35:13.367Z,100678.07
2023-05-24T11:37:46.931Z,100675.02
2023-05-24T11:40:18.935Z,100671.45
2023-05-24T11:42:51.042Z,100673.27
2023-05-24T11:45:22.567Z,100678.54
2023-05-24T11:47:53.001Z,100676.11
2023-05-24T11:50:45.884Z,100674.98
2023-05-24T11:53:19.305Z,100675.23
2023-05-24T11:55:51.396Z,100670.30
2023-05-24T11:58:26.307Z,100678.50
2023-05-24T12:00:56.684Z,100676.00
2023-05-24T12:03:27.170Z,100668.36
2023-05-24T12:05:59.834Z,100671.41
2023-05-24T12:08:30.192Z,100673.58
2023-05-24T12:11:02.966Z,100672.64
2023-05-24T12:13:34.812Z,100672.31
2023-05-24T12:16:05.780Z,100675.95
2023-05-24T12:18:40.033Z,100675.15
2023-05-24T12:21:13.971Z,100673.23
2023-05-24T12:23:44.497Z,100672.61
2023-05-24T12:26:19.031Z,100668.88
2023-05-24T12:28:54.166Z,100668.40
2023-05-24T12:31:24.770Z,100669.55
2023-05-24T12:33:55.101Z,100668.98
2023-05-24T12:36:25.769Z,100667.70
2023-05-24T12:38:57.788Z,100666.92
2023-05-24T12:41:29.687Z,100663.98
2023-05-24T12:44:00.292Z,100663.80
2023-05-24T12:46:30.766Z,100666.21
2023-05-24T12:49:02.516Z,100668.48
2023-05-24T12:51:32.975Z,100672.15
2023-05-24T12:54:04.920Z,100668.48
2023-05-24T12:56:35.390Z,100670.89
2023-05-24T12:59:05.898Z,100673.60
2023-05-24T13:01:36.809Z,100672.54
2023-05-24T13:04:07.499Z,100671.90
2023-05-24T13:06:38.372Z,100667.84
2023-05-24T13:09:09.984Z,100664.61
2023-05-24T13:11:40.315Z,100664.73
2023-05-24T13:14:11.522Z,100669.41
2023-05-24T13:16:42.350Z,100669.98
2023-05-24T13:19:13.149Z,100668.25
2023-05-24T13:21:44.093Z,100666.77
2023-05-24T13:24:15.916Z,100666.54
2023-05-24T13:26:47.098Z,100658.77
2023-05-24T13:29:34.326Z,100653.27
2023-05-24T13:32:10.017Z,100653.45
2023-05-24T13:34:40.772Z,100656.87
2023-05-24T13:37:11.218Z,100655.41
2023-05-24T13:39:41.715Z,100655.41
2023-05-24T13:42:12.617Z,100653.66
2023-05-24T13:44:43.224Z,100651.38
2023-05-24T13:47:23.738Z,100656.74
2023-05-24T13:50:02.019Z,100654.42
2023-05-24T13:52:32.923Z,100656.80
2023-05-24T13:55:05.720Z,100660.63
2023-05-24T13:57:50.546Z,100656.88
2023-05-24T14:00:23.472Z,100654.15
2023-05-24T14:02:54.538Z,100652.52
2023-05-24T14:05:28.115Z,100653.36
2023-05-24T14:08:06.322Z,100654.80
2023-05-24T14:10:38.071Z,100653.88
2023-05-24T14:15:43.003Z,100648.66
2023-05-24T14:18:13.701Z,100648.22
2023-05-24T14:20:44.089Z,100649.20
2023-05-24T14:23:17.235Z,100642.86
2023-05-24T14:25:47.787Z,100645.59
2023-05-24T14:28:18.332Z,100649.16
2023-05-24T14:30:48.706Z,100641.09
2023-05-24T14:33:19.129Z,100640.52
2023-05-24T14:35:50.260Z,100636.05
2023-05-24T14:38:20.861Z,100638.68
2023-05-24T14:40:51.478Z,100634.63
2023-05-24T14:43:22.100Z,100627.99
2023-05-24T14:45:52.612Z,100619.07
2023-05-24T14:48:23.181Z,100620.19
2023-05-24T14:50:55.843Z,100622.00
2023-05-24T14:53:26.240Z,100618.21
2023-05-24T14:55:56.678Z,100617.46
2023-05-24T14:58:27.581Z,100618.92
2023-05-24T15:00:57.978Z,100615.67
2023-05-24T15:03:28.623Z,100619.41
2023-05-24T15:06:02.486Z,100613.09
2023-05-24T15:08:34.119Z,100610.31
2023-05-24T15:11:05.172Z,100606.94
2023-05-24T15:13:35.603Z,100605.14
2023-05-24T15:16:06.258Z,100605.77
2023-05-24T15:18:36.876Z,100610.91
2023-05-24T15:21:07.392Z,100612.41
2023-05-24T15:23:37.707Z,100609.34
2023-05-24T15:26:08.190Z,100615.45
2023-05-24T15:28:38.533Z,100617.46
2023-05-24T15:31:09.187Z,100616.29
2023-05-24T15:33:39.707Z,100611.41
2023-05-24T15:36:14.203Z,100612.68
2023-05-24T15:38:44.640Z,100603.23
2023-05-24T15:41:15.536Z,100603.96
2023-05-24T15:43:46.078Z,100603.92
2023-05-24T15:46:16.576Z,100610.57
2023-05-24T15:48:46.990Z,100609.42
2023-05-24T15:53:50.772Z,100603.58
2023-05-24T15:56:22.191Z,100604.81
2023-05-24T15:58:52.867Z,100610.89
2023-05-24T16:01:23.410Z,100610.19
2023-05-24T16:03:54.205Z,100611.83
2023-05-24T16:06:24.720Z,100617.45
2023-05-24T16:08:55.076Z,100616.45
2023-05-24T16:11:25.913Z,100621.52
2023-05-24T16:13:57.104Z,100620.34
2023-05-24T16:16:29.080Z,100625.66
2023-05-24T16:18:59.491Z,100631.39
2023-05-24T16:21:29.880Z,100635.14
2023-05-24T16:24:01.843Z,100637.60
2023-05-24T16:26:33.190Z,100636.48
2023-05-24T16:29:03.661Z,100638.86
2023-05-24T16:31:34.436Z,100646.06
2023-05-24T16:34:04.895Z,100646.27
2023-05-24T16:36:35.303Z,100650.59
2023-05-24T16:39:05.877Z,100650.23
2023-05-24T16:41:37.730Z,100651.81
2023-05-24T16:44:08.985Z,100656.65
2023-05-24T16:46:41.676Z,100657.71
2023-05-24T16:49:12.180Z,100667.14
2023-05-24T16:51:42.517Z,100669.45
2023-05-24T16:54:12.919Z,100671.04
2023-05-24T16:56:43.493Z,100670.94
2023-05-24T16:59:21.238Z,100670.55
2023-05-24T17:01:51.919Z,100673.45
2023-05-24T17:04:22.616Z,100672.83
2023-05-24T17:06:53.153Z,100674.54
2023-05-24T17:09:23.703Z,100680.45
2023-05-24T17:11:54.197Z,100683.52
2023-05-24T17:14:25.148Z,100688.73
2023-05-24T17:16:55.573Z,100696.45
2023-05-24T17:19:26.230Z,100700.53
2023-05-24T17:21:57.101Z,100696.08
2023-05-24T17:24:28.312Z,100693.66
2023-05-24T17:26:59.267Z,100696.67
2023-05-24T17:29:30.262Z,100706.40
2023-05-24T17:32:00.924Z,100709.95
2023-05-24T17:34:31.536Z,100712.15
2023-05-24T17:37:04.066Z,100722.04
2023-05-24T17:39:35.777Z,100722.63
2023-05-24T17:42:06.882Z,100727.91
2023-05-24T17:44:39.288Z,100723.83
2023-05-24T17:47:09.699Z,100727.48
2023-05-24T17:49:40.098Z,100730.33
2023-05-24T17:52:10.557Z,100729.80
2023-05-24T17:54:41.000Z,100730.33
2023-05-24T17:57:11.320Z,100729.83
2023-05-24T17:59:41.800Z,100737.48
2023-05-24T18:02:12.268Z,100743.17
2023-05-24T18:04:42.615Z,100746.02
2023-05-24T18:07:17.012Z,100748.11
2023-05-24T18:09:47.754Z,100752.27
2023-05-24T18:12:19.185Z,100753.36
2023-05-24T18:14:50.774Z,100757.17
2023-05-24T18:17:21.636Z,100760.55
2023-05-24T18:19:52.125Z,100759.72
2023-05-24T18:22:22.533Z,100761.71
2023-05-24T18:24:52.914Z,100762.48
2023-05-24T18:27:23.917Z,100770.83
2023-05-24T18:29:54.425Z,100771.22
2023-05-24T18:32:24.985Z,100771.60
2023-05-24T18:34:57.075Z,100776.03
2023-05-24T18:37:30.210Z,100785.23
2023-05-24T18:40:02.115Z,100789.13
2023-05-24T18:42:32.537Z,100791.44
2023-05-24T18:45:05.705Z,100794.94
2023-05-24T18:47:36.785Z,100795.65
2023-05-24T18:50:09.292Z,100804.80
2023-05-24T18:52:40.138Z,100807.95
2023-05-24T18:55:11.879Z,100808.66
2023-05-24T18:57:42.339Z,100813.11
2023-05-24T19:00:14.887Z,100817.67
2023-05-24T19:02:45.534Z,100820.63
2023-05-24T19:05:16.212Z,100820.60
2023-05-24T19:07:47.988Z,100820.73
2023-05-24T19:10:18.855Z,100822.27
2023-05-24T19:12:49.253Z,100825.54
2023-05-24T19:15:27.561Z,100827.60
2023-05-24T19:17:59.412Z,100826.83
2023-05-24T19:20:29.948Z,100830.45
2023-05-24T19:23:01.435Z,100830.73
2023-05-24T19:25:42.027Z,100830.87
2023-05-24T19:28:13.626Z,100829.19
2023-05-24T19:30:51.105Z,100829.81
2023-05-24T19:33:23.381Z,100829.05
2023-05-24T19:35:54.868Z,100823.70
2023-05-24T19:38:30.047Z,100824.52
2023-05-24T19:41:06.365Z,100826.35
2023-05-24T19:43:44.742Z,100835.77
2023-05-24T19:46:17.931Z,100833.73
2023-05-24T19:48:52.877Z,100832.39
2023-05-24T19:51:30.804Z,100831.43
2023-05-24T19:54:16.082Z,100831.89
2023-05-24T19:56:52.035Z,100833.58
2023-05-24T19:59:25.491Z,100837.89
2023-05-24T20:01:58.756Z,100839.23
2023-05-24T20:04:33.062Z,100838.27
2023-05-24T20:07:03.856Z,100842.59
2023-05-24T20:09:37.215Z,100842.48
2023-05-24T20:12:08.125Z,100842.92
2023-05-24T20:14:40.166Z,100844.90
2023-05-24T20:17:10.985Z,100847.74
2023-05-24T20:19:42.523Z,100845.17
2023-05-24T20:22:16.169Z,100843.11
2023-05-24T20:24:49.477Z,100848.39
2023-05-24T20:27:19.966Z,100850.39
2023-05-24T20:29:56.607Z,100856.23
2023-05-24T20:32:27.373Z,100859.11
2023-05-24T20:34:57.763Z,100857.06
2023-05-24T20:37:29.995Z,100858.20
2023-05-24T20:40:04.642Z,100863.85
2023-05-24T20:42:37.000Z,100865.52
2023-05-24T20:45:10.293Z,100868.53
2023-05-24T20:47:49.087Z,100871.04
2023-05-24T20:50:20.041Z,100876.52
2023-05-24T20:52:52.771Z,100874.81
2023-05-24T20:55:26.543Z,100872.77
2023-05-24T20:58:01.634Z,100875.49
2023-05-24T21:00:42.312Z,100875.76
2023-05-24T21:03:14.023Z,100877.55
2023-05-24T21:05:48.253Z,100882.66
2023-05-24T21:08:23.393Z,100881.98
2023-05-24T21:10:57.299Z,100888.70
2023-05-24T21:13:32.098Z,100894.14
2023-05-24T21:16:07.624Z,100899.79
2023-05-24T21:18:44.453Z,100905.77
2023-05-24T21:21:17.053Z,100910.32
2023-05-24T21:23:48.784Z,100918.05
2023-05-24T21:26:24.481Z,100920.70
2023-05-24T21:28:54.858Z,100920.73
2023-05-24T21:31:27.155Z,100922.16
2023-05-24T21:34:00.105Z,100929.19
2023-05-24T21:36:36.517Z,100934.98
2023-05-24T21:39:11.433Z,100936.21
2023-05-24T21:41:44.036Z,100939.73
2023-05-24T21:44:15.103Z,100941.01
2023-05-24T21:46:54.431Z,100937.87
2023-05-24T21:49:25.626Z,100935.45
2023-05-24T21:52:00.993Z,100935.51
2023-05-24T21:54:32.260Z,100938.69
2023-05-24T21:57:04.698Z,100941.66
2023-05-24T21:59:40.546Z,100943.95
2023-05-24T22:02:14.287Z,100948.52
2023-05-24T22:04:44.853Z,100947.48
2023-05-24T22:07:15.400Z,100948.20
2023-05-24T22:09:46.780Z,100950.49
2023-05-24T22:12:23.001Z,100951.73
2023-05-24T22:14:54.159Z,100952.80
2023-05-24T22:17:46.998Z,100953.19
2023-05-24T22:20:38.600Z,100950.92
2023-05-24T22:23:13.889Z,100950.75
2023-05-24T22:25:49.507Z,100948.65
2023-05-24T22:28:24.902Z,100942.88
2023-05-24T22:30:56.157Z,100947.27
2023-05-24T22:33:48.085Z,100948.85
2023-05-24T22:36:37.843Z,100952.89
2023-05-24T22:39:11.716Z,100946.80
2023-05-24T22:41:42.297Z,100950.48
2023-05-24T22:44:33.196Z,100948.59
2023-05-24T22:47:04.095Z,100946.31
2023-05-24T22:49:35.807Z,100943.88
2023-05-24T22:52:07.018Z,100947.73
2023-05-24T22:55:01.793Z,100945.45
2023-05-24T22:57:52.418Z,100946.15
2023-05-24T23:00:23.388Z,100946.35
2023-05-24T23:02:58.099Z,100945.31
2023-05-24T23:05:37.345Z,100942.70
2023-05-24T23:08:27.892Z,100943.77
2023-05-24T23:10:58.428Z,100943.77
2023-05-24T23:13:36.397Z,100946.23
2023-05-24T23:16:29.328Z,100946.23
2023-05-24T23:19:15.274Z,100948.86
2023-05-24T23:22:05.922Z,100951.69
2023-05-24T23:24:38.053Z,100951.17
2023-05-24T23:27:29.569Z,100948.20
2023-05-24T23:30:08.304Z,100952.94
2023-05-24T23:32:39.363Z,100953.80
2023-05-24T23:35:10.970Z,100956.95
2023-05-24T23:38:16.325Z,100961.67
2023-05-24T23:40:57.392Z,100961.16
2023-05-24T23:43:28.059Z,100965.00
2023-05-24T23:46:15.249Z,100960.46
2023-05-24T23:49:05.960Z,100960.13
2023-05-24T23:51:37.057Z,100957.84
2023-05-24T23:54:07.787Z,100962.73
2023-05-24T23:57:04.285Z,100961.67
2023-05-24T23:59:36.813Z,100967.79
